Time;durP1;ratioP1;P1;durP2;ratioP2;P2;SDS_P1;SDS_P2;PMS_P1;PMS_P2;Temp;Humidity;BMP_temperature;BMP_pressure;BME280_temperature;BME280_humidity;BME280_pressure;Samples;Min_cycle;Max_cycle;Signal;HPM_P1;HPM_P2
2023/04/01 00:00:56;;;;;;;;;;;;;;;;;;6243566;22;20491;-94
2023/04/01 00:03:22;;;;;;;;;;;;;;;;;;6273198;22;19915;-94
2023/04/01 00:05:48;;;;;;;;;;;;;;;;;;6244384;22;19980;-94
2023/04/01 00:08:14;;;;;;;;;;;;;;;;;;6248017;22;19933;-95
2023/04/01 00:10:40;;;;;;;;;;;;;;;;;;6273396;22;20012;-93
2023/04/01 00:13:06;;;;;;;;;;;;;;;;;;6244343;22;20332;-94
2023/04/01 00:15:32;;;;;;;;;;;;;;;;;;6245753;22;19934;-94
2023/04/01 00:17:58;;;;;;;;;;;;;;;;;;6237781;22;19919;-94
2023/04/01 00:20:25;;;;;;;;;;;;;;;;;;6242885;22;19923;-93
2023/04/01 00:22:51;;;;;;;;;;;;;;;;;;6264274;22;19923;-94
2023/04/01 00:25:16;;;;;;;;;;;;;;;;;;6268254;22;19915;-93
2023/04/01 00:27:43;;;;;;;;;;;;;;;;;;6241296;22;19938;-93
2023/04/01 00:30:09;;;;;;;;;;;;;;;;;;6239726;22;19920;-94
2023/04/01 00:32:35;;;;;;;;;;;;;;;;;;6241715;22;19958;-95
2023/04/01 00:35:02;;;;;;;;;;;;;;;;;;6265447;22;19934;-94
2023/04/01 00:37:28;;;;;;;;;;;;;;;;;;6242588;22;19919;-94
2023/04/01 00:39:54;;;;;;;;;;;;;;;;;;6239587;22;19973;-93
2023/04/01 00:42:19;;;;;;;;;;;;;;;;;;6241655;22;19919;-93
2023/04/01 00:44:45;;;;;;;;;;;;;;;;;;6239398;22;19923;-95
2023/04/01 00:47:11;;;;;;;;;;;;;;;;;;6267128;22;19989;-94
2023/04/01 00:49:37;;;;;;;;;;;;;;;;;;6265907;22;19981;-95
2023/04/01 00:52:03;;;;;;;;;;;;;;;;;;6238204;22;20301;-93
2023/04/01 00:54:29;;;;;;;;;;;;;;;;;;6242756;22;20386;-93
2023/04/01 00:56:56;;;;;;;;;;;;;;;;;;6237851;22;19915;-93
2023/04/01 00:59:21;;;;;;;;;;;;;;;;;;6266075;22;19919;-93
2023/04/01 01:01:47;;;;;;;;;;;;;;;;;;6264283;22;20296;-94
2023/04/01 01:04:14;;;;;;;;;;;;;;;;;;6239619;22;19950;-94
2023/04/01 01:06:40;;;;;;;;;;;;;;;;;;6240530;22;19966;-93
2023/04/01 01:09:07;;;;;;;;;;;;;;;;;;6239305;22;20256;-94
2023/04/01 01:11:33;;;;;;;;;;;;;;;;;;6241440;22;19971;-93
2023/04/01 01:13:59;;;;;;;;;;;;;;;;;;6264601;22;19919;-94
2023/04/01 01:16:25;;;;;;;;;;;;;;;;;;6244416;22;19927;-94
2023/04/01 01:18:51;;;;;;;;;;;;;;;;;;6246089;22;19950;-93
2023/04/01 01:21:19;;;;;;;;;;;;;;;;;;6245315;22;20328;-93
2023/04/01 01:23:46;;;;;;;;;;;;;;;;;;6242451;22;19951;-95
2023/04/01 01:26:12;;;;;;;;;;;;;;;;;;6270325;22;20252;-94
2023/04/01 01:28:38;;;;;;;;;;;;;;;;;;6270790;22;20244;-93
2023/04/01 01:31:04;;;;;;;;;;;;;;;;;;6242817;22;20294;-94
2023/04/01 01:33:30;;;;;;;;;;;;;;;;;;6243963;22;19998;-94
2023/04/01 01:35:56;;;;;;;;;;;;;;;;;;6243740;22;19996;-93
2023/04/01 01:38:22;;;;;;;;;;;;;;;;;;6246039;22;19922;-92
2023/04/01 01:40:48;;;;;;;;;;;;;;;;;;6244177;22;20278;-93
2023/04/01 01:43:14;;;;;;;;;;;;;;;;;;6270791;22;19926;-94
2023/04/01 01:45:40;;;;;;;;;;;;;;;;;;6271329;22;19919;-94
2023/04/01 01:48:06;;;;;;;;;;;;;;;;;;6241768;22;19921;-94
2023/04/01 01:50:32;;;;;;;;;;;;;;;;;;6246387;22;20246;-93
2023/04/01 01:52:58;;;;;;;;;;;;;;;;;;6243352;22;19990;-94
2023/04/01 01:55:24;;;;;;;;;;;;;;;;;;6245724;22;19973;-93
2023/04/01 01:57:50;;;;;;;;;;;;;;;;;;6242991;22;19923;-93
2023/04/01 02:00:17;;;;;;;;;;;;;;;;;;6247904;22;19920;-93
2023/04/01 02:02:43;;;;;;;;;;;;;;;;;;6270492;22;19919;-93
2023/04/01 02:05:09;;;;;;;;;;;;;;;;;;6244868;22;19926;-94
2023/04/01 02:07:35;;;;;;;;;;;;;;;;;;6244783;22;20334;-94
2023/04/01 02:10:02;;;;;;;;;;;;;;;;;;6244271;22;19926;-94
2023/04/01 02:12:27;;;;;;;;;;;;;;;;;;6245750;22;20354;-93
2023/04/01 02:14:53;;;;;;;;;;;;;;;;;;6243793;22;19915;-93
2023/04/01 02:17:19;;;;;;;;;;;;;;;;;;6243525;22;19918;-94
2023/04/01 02:19:45;;;;;;;;;;;;;;;;;;6242358;22;19923;-94
2023/04/01 02:22:11;;;;;;;;;;;;;;;;;;6244931;22;19915;-94
2023/04/01 02:24:37;;;;;;;;;;;;;;;;;;6245376;22;19953;-94
2023/04/01 02:27:03;;;;;;;;;;;;;;;;;;6242148;22;20351;-92
2023/04/01 02:29:29;;;;;;;;;;;;;;;;;;6272644;22;19919;-95
2023/04/01 02:31:55;;;;;;;;;;;;;;;;;;6243915;22;19919;-92
2023/04/01 02:34:21;;;;;;;;;;;;;;;;;;6248073;22;19919;-93
2023/04/01 02:36:47;;;;;;;;;;;;;;;;;;6270569;22;20017;-93
2023/04/01 02:39:13;;;;;;;;;;;;;;;;;;6247287;22;19915;-94
2023/04/01 02:41:39;;;;;;;;;;;;;;;;;;6244434;22;19990;-94
2023/04/01 02:44:05;;;;;;;;;;;;;;;;;;6245521;22;20488;-94
2023/04/01 02:46:31;;;;;;;;;;;;;;;;;;6247695;22;19977;-93
2023/04/01 02:48:57;;;;;;;;;;;;;;;;;;6245532;22;19951;-94
2023/04/01 02:51:23;;;;;;;;;;;;;;;;;;6247908;22;20225;-94
2023/04/01 02:53:49;;;;;;;;;;;;;;;;;;6244772;22;19919;-94
2023/04/01 02:56:15;;;;;;;;;;;;;;;;;;6272656;22;19989;-94
2023/04/01 02:58:41;;;;;;;;;;;;;;;;;;6247384;22;20359;-94
2023/04/01 03:01:08;;;;;;;;;;;;;;;;;;6243131;22;19915;-94
2023/04/01 03:03:34;;;;;;;;;;;;;;;;;;6247265;22;20343;-94
2023/04/01 03:06:00;;;;;;;;;;;;;;;;;;6245281;22;19922;-94
2023/04/01 03:08:26;;;;;;;;;;;;;;;;;;6247488;22;19993;-94
2023/04/01 03:10:52;;;;;;;;;;;;;;;;;;6244500;22;19949;-94
2023/04/01 03:13:18;;;;;;;;;;;;;;;;;;6248113;22;20344;-92
2023/04/01 03:15:44;;;;;;;;;;;;;;;;;;6246069;22;19954;-94
2023/04/01 03:18:10;;;;;;;;;;;;;;;;;;6272678;22;19947;-93
2023/04/01 03:20:36;;;;;;;;;;;;;;;;;;6247187;22;19923;-93
2023/04/01 03:23:02;;;;;;;;;;;;;;;;;;6270002;22;19964;-94
2023/04/01 03:25:30;;;;;;;;;;;;;;;;;;6248205;22;19921;-94
2023/04/01 03:27:56;;;;;;;;;;;;;;;;;;6244638;22;19964;-93
2023/04/01 03:30:22;;;;;;;;;;;;;;;;;;6247279;22;19927;-95
2023/04/01 03:32:48;;;;;;;;;;;;;;;;;;6244153;22;19915;-93
2023/04/01 03:35:14;;;;;;;;;;;;;;;;;;6247267;22;19964;-93
2023/04/01 03:37:40;;;;;;;;;;;;;;;;;;6273478;22;19919;-93
2023/04/01 03:40:06;;;;;;;;;;;;;;;;;;6243955;22;20055;-93
2023/04/01 03:42:32;;;;;;;;;;;;;;;;;;6273633;22;19915;-93
2023/04/01 03:44:58;;;;;;;;;;;;;;;;;;6269640;22;19925;-93
2023/04/01 03:47:24;;;;;;;;;;;;;;;;;;6269943;22;19997;-93
2023/04/01 03:49:50;;;;;;;;;;;;;;;;;;6242350;22;20338;-94
2023/04/01 03:52:16;;;;;;;;;;;;;;;;;;6247303;22;20425;-93
2023/04/01 03:54:42;;;;;;;;;;;;;;;;;;6248093;22;19994;-94
2023/04/01 03:57:08;;;;;;;;;;;;;;;;;;6242836;22;19918;-93
2023/04/01 03:59:34;;;;;;;;;;;;;;;;;;6272780;22;19998;-94
2023/04/01 04:02:00;;;;;;;;;;;;;;;;;;6268364;22;19930;-94
2023/04/01 04:04:26;;;;;;;;;;;;;;;;;;6247314;22;19942;-94
2023/04/01 04:06:52;;;;;;;;;;;;;;;;;;6242861;22;20012;-93
2023/04/01 04:09:18;;;;;;;;;;;;;;;;;;6271786;22;20218;-93
2023/04/01 04:11:44;;;;;;;;;;;;;;;;;;6243263;22;19941;-94
2023/04/01 04:14:10;;;;;;;;;;;;;;;;;;6247940;22;19919;-94
2023/04/01 04:16:36;;;;;;;;;;;;;;;;;;6244497;22;19918;-93
2023/04/01 04:19:02;;;;;;;;;;;;;;;;;;6245068;22;19919;-94
2023/04/01 04:21:28;;;;;;;;;;;;;;;;;;6271987;22;20365;-94
2023/04/01 04:23:54;;;;;;;;;;;;;;;;;;6244496;22;19919;-94
2023/04/01 04:26:20;;;;;;;;;;;;;;;;;;6246600;22;20382;-95
2023/04/01 04:28:46;;;;;;;;;;;;;;;;;;6244111;22;19915;-94
2023/04/01 04:31:12;;;;;;;;;;;;;;;;;;6246402;22;20259;-93
2023/04/01 04:33:38;;;;;;;;;;;;;;;;;;6246896;22;19922;-94
2023/04/01 04:36:04;;;;;;;;;;;;;;;;;;6242362;22;19918;-94
2023/04/01 04:38:30;;;;;;;;;;;;;;;;;;6247450;22;20282;-93
2023/04/01 04:40:56;;;;;;;;;;;;;;;;;;6244313;22;19964;-94
2023/04/01 04:43:22;;;;;;;;;;;;;;;;;;6246083;22;19922;-94
2023/04/01 04:45:48;;;;;;;;;;;;;;;;;;6245455;22;19914;-93
2023/04/01 04:48:18;;;;;;;;;;;;;;;;;;6243979;22;19919;-95
2023/04/01 04:50:44;;;;;;;;;;;;;;;;;;6244144;22;19958;-94
2023/04/01 04:53:10;;;;;;;;;;;;;;;;;;6244525;22;20006;-93
2023/04/01 04:55:36;;;;;;;;;;;;;;;;;;6244819;22;20270;-93
2023/04/01 04:58:02;;;;;;;;;;;;;;;;;;6243020;22;19921;-93
2023/04/01 05:00:28;;;;;;;;;;;;;;;;;;6246145;22;20005;-94
2023/04/01 05:02:54;;;;;;;;;;;;;;;;;;6268504;22;20269;-93
2023/04/01 05:05:20;;;;;;;;;;;;;;;;;;6247484;22;19973;-92
2023/04/01 05:07:45;;;;;;;;;;;;;;;;;;6243654;22;19972;-94
2023/04/01 05:10:11;;;;;;;;;;;;;;;;;;6246722;22;19923;-94
2023/04/01 05:12:38;;;;;;;;;;;;;;;;;;6269750;22;19915;-94
2023/04/01 05:15:04;;;;;;;;;;;;;;;;;;6243958;22;19925;-94
2023/04/01 05:17:30;;;;;;;;;;;;;;;;;;6244835;22;19923;-93
2023/04/01 05:19:56;;;;;;;;;;;;;;;;;;6267703;22;20378;-94
2023/04/01 05:22:23;;;;;;;;;;;;;;;;;;6245015;22;20265;-94
2023/04/01 05:24:49;;;;;;;;;;;;;;;;;;6244455;22;19918;-94
2023/04/01 05:27:15;;;;;;;;;;;;;;;;;;6271481;22;19919;-93
2023/04/01 05:29:40;;;;;;;;;;;;;;;;;;6271270;22;20449;-93
2023/04/01 05:32:06;;;;;;;;;;;;;;;;;;6241700;22;19982;-94
2023/04/01 05:34:32;;;;;;;;;;;;;;;;;;6269394;22;19922;-95
2023/04/01 05:36:58;;;;;;;;;;;;;;;;;;6242490;22;19968;-95
2023/04/01 05:39:24;;;;;;;;;;;;;;;;;;6241228;22;19925;-94
2023/04/01 05:41:50;;;;;;;;;;;;;;;;;;6269377;22;20371;-95
2023/04/01 05:44:16;;;;;;;;;;;;;;;;;;6247287;22;19919;-94
2023/04/01 05:46:43;;;;;;;;;;;;;;;;;;6243633;22;19918;-95
2023/04/01 05:49:09;;;;;;;;;;;;;;;;;;6247232;22;19930;-95
2023/04/01 05:51:35;;;;;;;;;;;;;;;;;;6246428;22;19919;-94
2023/04/01 05:54:01;;;;;;;;;;;;;;;;;;6270420;22;20339;-94
2023/04/01 05:56:27;;;;;;;;;;;;;;;;;;6243998;22;19925;-94
2023/04/01 05:58:53;;;;;;;;;;;;;;;;;;6244017;22;20315;-95
2023/04/01 06:01:19;;;;;;;;;;;;;;;;;;6245074;22;19919;-94
2023/04/01 06:03:45;;;;;;;;;;;;;;;;;;6242688;22;19922;-94
2023/04/01 06:06:11;;;;;;;;;;;;;;;;;;6245736;22;20254;-94
2023/04/01 06:08:37;;;;;;;;;;;;;;;;;;6245531;22;19919;-95
2023/04/01 06:11:03;;;;;;;;;;;;;;;;;;6242669;22;20471;-95
2023/04/01 06:13:29;;;;;;;;;;;;;;;;;;6245971;22;19921;-94
2023/04/01 06:15:55;;;;;;;;;;;;;;;;;;6243873;22;19918;-95
2023/04/01 06:18:21;;;;;;;;;;;;;;;;;;6246121;22;19965;-94
2023/04/01 06:20:47;;;;;;;;;;;;;;;;;;6268692;22;19922;-94
2023/04/01 06:23:13;;;;;;;;;;;;;;;;;;6245932;22;19919;-94
2023/04/01 06:25:39;;;;;;;;;;;;;;;;;;6245077;22;19919;-94
2023/04/01 06:28:05;;;;;;;;;;;;;;;;;;6241529;22;19997;-93
2023/04/01 06:30:31;;;;;;;;;;;;;;;;;;6245007;22;20303;-94
2023/04/01 06:32:57;;;;;;;;;;;;;;;;;;6237031;22;19915;-93
2023/04/01 06:35:23;;;;;;;;;;;;;;;;;;6243211;22;19919;-94
2023/04/01 06:37:49;;;;;;;;;;;;;;;;;;6241790;22;19914;-92
2023/04/01 06:40:15;;;;;;;;;;;;;;;;;;6244303;22;19919;-95
2023/04/01 06:42:41;;;;;;;;;;;;;;;;;;6242255;22;20242;-93
2023/04/01 06:45:07;;;;;;;;;;;;;;;;;;6242050;22;19923;-95
2023/04/01 06:47:33;;;;;;;;;;;;;;;;;;6244203;22;20005;-94
2023/04/01 06:49:59;;;;;;;;;;;;;;;;;;6244339;22;19923;-94
2023/04/01 06:52:25;;;;;;;;;;;;;;;;;;6245199;22;19922;-94
2023/04/01 06:54:51;;;;;;;;;;;;;;;;;;6242928;22;19918;-96
2023/04/01 06:57:17;;;;;;;;;;;;;;;;;;6270628;22;19919;-94
2023/04/01 06:59:43;;;;;;;;;;;;;;;;;;6246682;22;19964;-94
2023/04/01 07:02:09;;;;;;;;;;;;;;;;;;6243575;22;20278;-95
2023/04/01 07:04:35;;;;;;;;;;;;;;;;;;6246355;22;19993;-95
2023/04/01 07:07:01;;;;;;;;;;;;;;;;;;6243494;22;19915;-94
2023/04/01 07:09:27;;;;;;;;;;;;;;;;;;6246700;22;19930;-94
2023/04/01 07:11:53;;;;;;;;;;;;;;;;;;6246122;22;19919;-95
2023/04/01 07:14:19;;;;;;;;;;;;;;;;;;6250627;22;19919;-95
2023/04/01 07:16:45;;;;;;;;;;;;;;;;;;6243864;22;19926;-94
2023/04/01 07:19:11;;;;;;;;;;;;;;;;;;6241850;22;19919;-93
2023/04/01 07:21:37;;;;;;;;;;;;;;;;;;6243388;22;19923;-95
2023/04/01 07:24:03;;;;;;;;;;;;;;;;;;6239773;22;20788;-95
2023/04/01 07:26:29;;;;;;;;;;;;;;;;;;6242732;22;19916;-94
2023/04/01 07:28:55;;;;;;;;;;;;;;;;;;6240231;22;19919;-95
2023/04/01 07:31:21;;;;;;;;;;;;;;;;;;6242507;22;19930;-95
2023/04/01 07:33:47;;;;;;;;;;;;;;;;;;6240225;22;20260;-94
2023/04/01 07:36:13;;;;;;;;;;;;;;;;;;6242478;22;19919;-94
2023/04/01 07:38:40;;;;;;;;;;;;;;;;;;6242617;22;19916;-94
2023/04/01 07:41:06;;;;;;;;;;;;;;;;;;6240101;22;19925;-95
2023/04/01 07:43:32;;;;;;;;;;;;;;;;;;6244469;22;19989;-95
2023/04/01 07:45:58;;;;;;;;;;;;;;;;;;6239366;22;20029;-94
2023/04/01 07:48:24;;;;;;;;;;;;;;;;;;6239912;22;19921;-94
2023/04/01 07:50:50;;;;;;;;;;;;;;;;;;6239666;22;20350;-94
2023/04/01 07:53:16;;;;;;;;;;;;;;;;;;6268358;22;20338;-96
2023/04/01 07:55:42;;;;;;;;;;;;;;;;;;6268120;22;19957;-94
2023/04/01 07:58:08;;;;;;;;;;;;;;;;;;6239805;22;19986;-94
2023/04/01 08:00:34;;;;;;;;;;;;;;;;;;6243105;22;19923;-95
2023/04/01 08:03:00;;;;;;;;;;;;;;;;;;6239959;22;19919;-94
2023/04/01 08:05:27;;;;;;;;;;;;;;;;;;6242629;22;19969;-93
2023/04/01 08:07:53;;;;;;;;;;;;;;;;;;6239262;22;20325;-94
2023/04/01 08:10:19;;;;;;;;;;;;;;;;;;6241655;22;19931;-94
2023/04/01 08:12:45;;;;;;;;;;;;;;;;;;6240341;22;19926;-94
2023/04/01 08:15:11;;;;;;;;;;;;;;;;;;6243356;22;19919;-94
2023/04/01 08:17:37;;;;;;;;;;;;;;;;;;6240815;22;19919;-93
2023/04/01 08:20:02;;;;;;;;;;;;;;;;;;6240959;22;19930;-94
2023/04/01 08:22:29;;;;;;;;;;;;;;;;;;6241700;22;19951;-96
2023/04/01 08:24:55;;;;;;;;;;;;;;;;;;6240517;22;20320;-94
2023/04/01 08:27:21;;;;;;;;;;;;;;;;;;6241958;22;20287;-94
2023/04/01 08:29:47;;;;;;;;;;;;;;;;;;6265684;22;19923;-94
2023/04/01 08:32:12;;;;;;;;;;;;;;;;;;6241354;22;20225;-94
2023/04/01 08:34:38;;;;;;;;;;;;;;;;;;6241597;22;19986;-95
2023/04/01 08:37:04;;;;;;;;;;;;;;;;;;6265515;22;19919;-94
2023/04/01 08:39:31;;;;;;;;;;;;;;;;;;6243071;22;20337;-94
2023/04/01 08:41:57;;;;;;;;;;;;;;;;;;6238045;22;19919;-94
2023/04/01 08:44:23;;;;;;;;;;;;;;;;;;6240780;22;19926;-94
2023/04/01 08:46:49;;;;;;;;;;;;;;;;;;6237713;22;19915;-93
2023/04/01 08:49:15;;;;;;;;;;;;;;;;;;6241791;22;19926;-94
2023/04/01 08:51:41;;;;;;;;;;;;;;;;;;6240091;22;19916;-95
2023/04/01 08:54:07;;;;;;;;;;;;;;;;;;6238027;22;19980;-95
2023/04/01 08:56:33;;;;;;;;;;;;;;;;;;6239918;22;19919;-95
2023/04/01 08:58:59;;;;;;;;;;;;;;;;;;6239547;22;19998;-93
2023/04/01 09:01:25;;;;;;;;;;;;;;;;;;6241137;22;20006;-94
2023/04/01 09:03:51;;;;;;;;;;;;;;;;;;6239014;22;19990;-95
2023/04/01 09:06:17;;;;;;;;;;;;;;;;;;6241598;22;19955;-94
2023/04/01 09:08:43;;;;;;;;;;;;;;;;;;6240250;22;19974;-94
2023/04/01 09:11:09;;;;;;;;;;;;;;;;;;6242420;22;19919;-95
2023/04/01 09:13:35;;;;;;;;;;;;;;;;;;6241760;22;20293;-94
2023/04/01 09:16:01;;;;;;;;;;;;;;;;;;6237734;22;19986;-95
2023/04/01 09:18:27;;;;;;;;;;;;;;;;;;6241262;22;19926;-95
2023/04/01 09:20:53;;;;;;;;;;;;;;;;;;6238673;22;19923;-95
2023/04/01 09:23:19;;;;;;;;;;;;;;;;;;6242179;22;19981;-93
2023/04/01 09:25:46;;;;;;;;;;;;;;;;;;6237639;22;19919;-94
2023/04/01 09:28:12;;;;;;;;;;;;;;;;;;6241073;22;19919;-95
2023/04/01 09:30:39;;;;;;;;;;;;;;;;;;6242287;22;19927;-94
2023/04/01 09:33:05;;;;;;;;;;;;;;;;;;6239949;22;20248;-95
2023/04/01 09:35:31;;;;;;;;;;;;;;;;;;6240250;22;19916;-94
2023/04/01 09:37:57;;;;;;;;;;;;;;;;;;6237268;22;19916;-93
2023/04/01 09:40:23;;;;;;;;;;;;;;;;;;6241249;22;19973;-95
2023/04/01 09:42:49;;;;;;;;;;;;;;;;;;6240001;22;19915;-96
2023/04/01 09:45:15;;;;;;;;;;;;;;;;;;6242064;22;19916;-94
2023/04/01 09:47:41;;;;;;;;;;;;;;;;;;6237455;22;19915;-96
2023/04/01 09:50:07;;;;;;;;;;;;;;;;;;6262080;22;19923;-94
2023/04/01 09:52:33;;;;;;;;;;;;;;;;;;6241379;22;20256;-94
2023/04/01 09:55:07;;;;;;;;;;;;;;;;;;6239183;22;19919;-95
2023/04/01 10:18:23;;;;;;;;;;;;;;;;;;6295868;22;19922;-88
2023/04/01 10:20:49;;;;;;;;;;;;;;;;;;6267278;22;19915;-88
2023/04/01 10:23:15;;;;;;;;;;;;;;;;;;6270013;22;19919;-87
2023/04/01 10:25:41;;;;;;;;;;;;;;;;;;6269334;22;20410;-87
2023/04/01 10:28:07;;;;;;;;;;;;;;;;;;6266109;22;19965;-88
2023/04/01 10:30:33;;;;;;;;;;;;;;;;;;6269597;22;20344;-88
2023/04/01 10:32:59;;;;;;;;;;;;;;;;;;6266158;22;19923;-88
2023/04/01 10:35:25;;;;;;;;;;;;;;;;;;6298235;22;20279;-88
2023/04/01 10:43:23;;;;;;;;;;;;;;;;;;6202597;23;19926;-87
2023/04/01 10:46:17;;;;;;;;;;;;;;;;;;6202669;23;19916;-87
2023/04/01 10:52:02;;;;;;;;;;;;;;;;;;6176233;23;20470;-87
2023/04/01 11:01:09;;;;;;;;;;;;;;;;;;6133169;23;19924;-87
2023/04/01 11:06:55;;;;;;;;;;;;;;;;;;;;;
2023/04/01 11:09:45;;;;;;;;;;;;;;;;;;;;;
2023/04/01 11:18:18;;;;;;;;;;;;;;;;;;6005921;23;19918;-87
2023/04/01 11:27:27;;;;;;;;;;;;;;;;;;;;;
2023/04/01 11:30:10;;;;;;;;;;;;;;;;;;;;;
2023/04/01 11:32:48;;;;;;;;;;;;;;;;;;6027745;23;20286;-87
2023/04/01 11:35:39;;;;;;;;;;;;;;;;;;6067653;23;19924;-87
2023/04/01 11:46:24;;;;;;;;;;;;;;;;;;6294520;22;19961;-87
2023/04/01 11:49:32;;;;;;;;;;;;;;;;;;6224735;22;19926;-87
2023/04/01 11:58:39;;;;;;;;;;;;;;;;;;;;;
2023/04/01 12:04:23;;;;;;;;;;;;;;;;;;6307983;22;20247;-86
2023/04/01 12:16:17;;;;;;;;;;;;;;;;;;6214261;22;19921;-88
2023/04/01 12:28:05;;;;;;;;;;;;;;;;;;6052691;23;19933;-88
2023/04/01 12:33:57;;;;;;;;;;;;;;;;;;6055737;23;20025;-86
2023/04/01 12:39:31;;;;;;;;;;;;;;;;;;6115736;23;19921;-86
2023/04/01 12:42:06;;;;;;;;;;;;;;;;;;6119733;22;19918;-87
2023/04/01 12:44:35;;;;;;;;;;;;;;;;;;6246992;22;19954;-86
2023/04/01 12:47:01;;;;;;;;;;;;;;;;;;6244714;22;19985;-86
2023/04/01 12:49:27;;;;;;;;;;;;;;;;;;6251303;22;20328;-86
2023/04/01 12:51:53;;;;;;;;;;;;;;;;;;6248847;22;19915;-86
2023/04/01 12:54:19;;;;;;;;;;;;;;;;;;6276563;22;19919;-86
2023/04/01 12:56:45;;;;;;;;;;;;;;;;;;6248790;22;19971;-86
2023/04/01 12:59:11;;;;;;;;;;;;;;;;;;6250033;22;19954;-87
2023/04/01 13:01:37;;;;;;;;;;;;;;;;;;6248213;22;19918;-86
2023/04/01 13:04:09;;;;;;;;;;;;;;;;;;6248915;22;20345;-86
2023/04/01 13:06:41;;;;;;;;;;;;;;;;;;6247937;22;19918;-86
2023/04/01 13:09:07;;;;;;;;;;;;;;;;;;6246512;22;19915;-86
2023/04/01 13:11:33;;;;;;;;;;;;;;;;;;6247721;22;20225;-85
2023/04/01 13:13:59;;;;;;;;;;;;;;;;;;6247206;22;19919;-86
2023/04/01 13:16:25;;;;;;;;;;;;;;;;;;6247788;22;19941;-86
2023/04/01 13:18:57;;;;;;;;;;;;;;;;;;6248919;22;19915;-86
2023/04/01 13:21:23;;;;;;;;;;;;;;;;;;6250420;22;19922;-86
2023/04/01 13:23:49;;;;;;;;;;;;;;;;;;6249338;22;19930;-86
2023/04/01 13:26:15;;;;;;;;;;;;;;;;;;6250853;22;19918;-86
2023/04/01 13:28:41;;;;;;;;;;;;;;;;;;6275011;22;19993;-86
2023/04/01 13:31:07;;;;;;;;;;;;;;;;;;6248146;22;20427;-86
2023/04/01 13:33:41;;;;;;;;;;;;;;;;;;6251824;22;19990;-86
2023/04/01 13:36:09;;;;;;;;;;;;;;;;;;6248961;22;19958;-87
2023/04/01 13:38:35;;;;;;;;;;;;;;;;;;6242639;22;20554;-85
2023/04/01 13:41:01;;;;;;;;;;;;;;;;;;6238753;22;19919;-87
2023/04/01 13:43:27;;;;;;;;;;;;;;;;;;6243034;22;19942;-86
2023/04/01 13:45:53;;;;;;;;;;;;;;;;;;6242647;22;20344;-86
2023/04/01 13:48:20;;;;;;;;;;;;;;;;;;6245002;22;19972;-86
2023/04/01 13:50:48;;;;;;;;;;;;;;;;;;6266668;22;19919;-87
2023/04/01 13:53:14;;;;;;;;;;;;;;;;;;6244225;22;19953;-86
2023/04/01 13:55:46;;;;;;;;;;;;;;;;;;6245398;22;19915;-86
2023/04/01 13:58:12;;;;;;;;;;;;;;;;;;6242572;22;19919;-86
2023/04/01 14:00:40;;;;;;;;;;;;;;;;;;6242552;22;20403;-86
2023/04/01 14:03:06;;;;;;;;;;;;;;;;;;6237296;22;19926;-86
2023/04/01 14:05:33;;;;;;;;;;;;;;;;;;6268938;22;19919;-86
2023/04/01 14:07:59;;;;;;;;;;;;;;;;;;6240946;22;19918;-86
2023/04/01 14:10:25;;;;;;;;;;;;;;;;;;6244584;22;20221;-88
2023/04/01 14:12:51;;;;;;;;;;;;;;;;;;6241964;22;19919;-86
2023/04/01 14:15:21;;;;;;;;;;;;;;;;;;6244069;22;20256;-86
2023/04/01 14:17:47;;;;;;;;;;;;;;;;;;6240245;22;19997;-86
2023/04/01 14:20:13;;;;;;;;;;;;;;;;;;6242397;22;19919;-86
2023/04/01 14:22:40;;;;;;;;;;;;;;;;;;6243008;22;19942;-86
2023/04/01 14:25:06;;;;;;;;;;;;;;;;;;6267863;22;19915;-87
2023/04/01 14:27:34;;;;;;;;;;;;;;;;;;6247462;22;19926;-87
2023/04/01 14:30:03;;;;;;;;;;;;;;;;;;6244904;22;20300;-86
2023/04/01 14:32:29;;;;;;;;;;;;;;;;;;6246551;22;19925;-86
2023/04/01 14:34:56;;;;;;;;;;;;;;;;;;6244869;22;19918;-86
2023/04/01 14:37:22;;;;;;;;;;;;;;;;;;6245935;22;20327;-86
2023/04/01 14:39:48;;;;;;;;;;;;;;;;;;6244288;22;20002;-87
2023/04/01 14:42:14;;;;;;;;;;;;;;;;;;6244125;22;19923;-86
2023/04/01 14:44:43;;;;;;;;;;;;;;;;;;6243235;22;20288;-87
2023/04/01 14:47:09;;;;;;;;;;;;;;;;;;6245191;22;20351;-87
2023/04/01 14:49:38;;;;;;;;;;;;;;;;;;6242581;22;19954;-86
2023/04/01 15:12:49;;;;;;;;;;;;;;;;;;6184378;22;19943;-87
2023/04/01 18:12:56;;;;;;;;;;;;;;;;;;6286634;22;19927;-96
2023/04/01 18:24:11;;;;;;;;;;;;;;;;;;6301051;22;19918;-88
2023/04/01 18:26:39;;;;;;;;;;;;;;;;;;6261730;22;20214;-88
2023/04/01 18:29:11;;;;;;;;;;;;;;;;;;6260849;22;19922;-88
2023/04/01 18:31:37;;;;;;;;;;;;;;;;;;6235984;22;19919;-88
2023/04/01 19:59:36;;;;;;;;;;;;;;;;;;;;;
2023/04/01 20:02:08;;;;;;;;;;;;;;;;;;6292185;22;19987;-87
2023/04/01 20:07:56;;;;;;;;;;;;;;;;;;6176076;23;19984;-87
2023/04/01 20:34:58;;;;;;;;;;;;;;;;;;5808109;24;19960;-87
2023/04/01 21:09:14;;;;;;;;;;;;;;;;;;;;;
